logo liguriameteo

Diretta Meteo Brindisi, Italiasabato 18 maggio ore 15:20

Mappa
Sereno 24 °C Sereno 24 Ore: T.min 16 T.max 25
Ponente Sud-Est Km/h 18.5 Punto di rugiada: 18 °C Umidità: 69% Visibilità: 10 Km
Il sole sorge alle: 05:26 Il sole tramonta alle: 20:02
18 Maggio 2024 15:20 tempo osservato: Sereno Sereno 24 69 1012 vento: Nord SE 18.5
18 Maggio 2024 14:50 tempo osservato: Sereno Sereno 24 73 1012 vento: Nord E/SE 18.5
18 Maggio 2024 14:20 tempo osservato: Sereno Sereno 24 69 1012 vento: Nord E/SE 18.5
18 Maggio 2024 13:50 tempo osservato: Sereno Sereno 24 69 1013 vento: Nord E/SE 14.8
18 Maggio 2024 13:20 tempo osservato: Sereno Sereno 24 69 1013 vento: Nord E/SE 18.5
18 Maggio 2024 12:50 tempo osservato: Sereno Sereno 25 65 1013 vento: Nord E/SE 13
18 Maggio 2024 12:20 tempo osservato: Sereno Sereno 24 69 1013 vento: Nord E 14.8
18 Maggio 2024 11:50 tempo osservato: Sereno Sereno 24 73 1013 vento: Nord E 13
18 Maggio 2024 11:20 tempo osservato: Sereno Sereno 22 83 1014 vento: Nord E/SE 14.8
18 Maggio 2024 10:50 tempo osservato: Sereno Sereno 23 73 1013 vento: Nord E/SE 16.7
18 Maggio 2024 10:20 tempo osservato: Sereno Sereno 21 82 1014 vento: Nord E/SE 16.7
18 Maggio 2024 09:50 tempo osservato: Nuvoloso Nuvoloso 21 82 1014 vento: Nord SE 11.1
18 Maggio 2024 09:20 tempo osservato: Foschia Foschia 19 88 1014 vento: Nord E/SE 11.1
18 Maggio 2024 08:50 tempo osservato: Foschia Foschia 18 93 1014 vento: Nord E 9.3
18 Maggio 2024 08:20 tempo osservato: Foschia Foschia 18 100 1014 vento: Nord N 3.7
18 Maggio 2024 07:50 tempo osservato: Foschia Foschia 18 93 1014 vento: Nord SE 7.4
18 Maggio 2024 07:20 tempo osservato: Nebbia Nebbia 17 100 1014 vento: Nord S 7.4
18 Maggio 2024 06:50 tempo osservato: Nebbia Nebbia 17 100 1014 vento: Nord N 3.7
18 Maggio 2024 06:20 tempo osservato: Nebbia Nebbia 17 100 1014 vento: Nord N 5.5
18 Maggio 2024 05:50 tempo osservato: Nebbia Nebbia 17 100 1013 vento: Nord N 5.5
18 Maggio 2024 05:20 tempo osservato: Nebbia Nebbia 17 93 1013 vento: Nord S/SO 7.4
18 Maggio 2024 04:50 tempo osservato: Nebbia Nebbia 17 93 1013 vento: Nord S 7.4
18 Maggio 2024 04:20 tempo osservato: Foschia Foschia 16 100 1013 vento: Nord S 7.4
18 Maggio 2024 03:50 tempo osservato: Foschia Foschia 17 93 1013 vento: Nord S/SO 11.1
18 Maggio 2024 03:20 tempo osservato: Foschia Foschia 17 93 1013 vento: Nord S 11.1
18 Maggio 2024 02:50 tempo osservato: Sereno Sereno 18 93 1013 vento: Nord S 11.1
18 Maggio 2024 02:20 tempo osservato: Sereno Sereno 18 93 1013 vento: Nord S 7.4
18 Maggio 2024 01:50 tempo osservato: Sereno Sereno 18 93 1013 vento: Nord N 5.5
18 Maggio 2024 01:20 tempo osservato: Sereno Sereno 18 93 1013 vento: Nord N 5.5
18 Maggio 2024 00:50 tempo osservato: Sereno Sereno 19 88 1014 vento: Nord N 5.5
18 Maggio 2024 00:20 tempo osservato: Sereno Sereno 19 88 1014 vento: Nord N 3.7
17 Maggio 2024 23:50 tempo osservato: Sereno Sereno 19 88 1014 vento: Nord S/SE 7.4
17 Maggio 2024 23:20 tempo osservato: Sereno Sereno 20 88 1014 vento: Nord S 9.3
17 Maggio 2024 22:50 tempo osservato: Sereno Sereno 21 82 1014 vento: Nord S 9.3
17 Maggio 2024 22:20 tempo osservato: Sereno Sereno 21 77 1014 vento: Nord SO 18.5
17 Maggio 2024 21:50 tempo osservato: Sereno Sereno 20 88 1014 vento: Nord SO 13
17 Maggio 2024 21:20 tempo osservato: Sereno Sereno 20 88 1014 vento: Nord O/SO 7.4
17 Maggio 2024 20:50 tempo osservato: Sereno Sereno 19 93 1013 vento: Nord N 5.5
17 Maggio 2024 20:20 tempo osservato: Sereno Sereno 19 93 1013 vento: Nord N 5.5
17 Maggio 2024 19:50 tempo osservato: Sereno Sereno 20 88 1013 vento: Nord E 9.3
17 Maggio 2024 19:20 tempo osservato: Sereno Sereno 20 88 1012 vento: Nord E 13
17 Maggio 2024 18:50 tempo osservato: Sereno Sereno 21 82 1012 vento: Nord E 13
17 Maggio 2024 18:20 tempo osservato: Sereno Sereno 21 82 1012 vento: Nord E 14.8
17 Maggio 2024 17:50 tempo osservato: Sereno Sereno 22 78 1012 vento: Nord E 16.7
17 Maggio 2024 16:50 tempo osservato: Sereno Sereno 22 78 1012 vento: Nord E/NE 16.7
17 Maggio 2024 16:20 tempo osservato: Sereno Sereno 22 78 1013 vento: Nord E/NE 13
17 Maggio 2024 15:50 tempo osservato: Sereno Sereno 23 73 1012 vento: Nord E 11.1